sensor_id;sensor_type;location;lat;lon;timestamp;P1;durP1;ratioP1;P2;durP2;ratioP2
7233;SDS011;3658;47.992;10.158;2022-11-12T00:00:08;1.90;;;1.80;;
7233;SDS011;3658;47.992;10.158;2022-11-12T00:02:36;1.87;;;1.70;;
7233;SDS011;3658;47.992;10.158;2022-11-12T00:05:04;1.97;;;1.80;;
7233;SDS011;3658;47.992;10.158;2022-11-12T00:07:32;1.97;;;1.80;;
7233;SDS011;3658;47.992;10.158;2022-11-12T00:09:59;2.60;;;1.80;;
7233;SDS011;3658;47.992;10.158;2022-11-12T00:12:26;1.70;;;1.60;;
7233;SDS011;3658;47.992;10.158;2022-11-12T00:14:52;1.93;;;1.80;;
7233;SDS011;3658;47.992;10.158;2022-11-12T00:17:19;2.03;;;1.83;;
7233;SDS011;3658;47.992;10.158;2022-11-12T00:19:46;2.20;;;2.00;;
7233;SDS011;3658;47.992;10.158;2022-11-12T00:22:14;2.20;;;2.00;;
7233;SDS011;3658;47.992;10.158;2022-11-12T00:24:41;2.20;;;2.00;;
7233;SDS011;3658;47.992;10.158;2022-11-12T00:27:08;2.87;;;2.00;;
7233;SDS011;3658;47.992;10.158;2022-11-12T00:29:35;1.80;;;1.70;;
7233;SDS011;3658;47.992;10.158;2022-11-12T00:32:03;2.10;;;1.90;;
7233;SDS011;3658;47.992;10.158;2022-11-12T00:34:30;1.90;;;1.80;;
7233;SDS011;3658;47.992;10.158;2022-11-12T00:36:57;1.80;;;1.70;;
7233;SDS011;3658;47.992;10.158;2022-11-12T00:39:25;1.97;;;1.87;;
7233;SDS011;3658;47.992;10.158;2022-11-12T00:41:52;1.67;;;1.57;;
7233;SDS011;3658;47.992;10.158;2022-11-12T00:44:19;1.90;;;1.60;;
7233;SDS011;3658;47.992;10.158;2022-11-12T00:46:46;1.60;;;1.50;;
7233;SDS011;3658;47.992;10.158;2022-11-12T00:49:13;1.97;;;1.87;;
7233;SDS011;3658;47.992;10.158;2022-11-12T00:51:41;1.70;;;1.60;;
7233;SDS011;3658;47.992;10.158;2022-11-12T00:54:08;2.20;;;1.73;;
7233;SDS011;3658;47.992;10.158;2022-11-12T00:56:37;1.83;;;1.73;;
7233;SDS011;3658;47.992;10.158;2022-11-12T00:59:04;1.53;;;1.43;;
7233;SDS011;3658;47.992;10.158;2022-11-12T01:01:31;1.87;;;1.70;;
7233;SDS011;3658;47.992;10.158;2022-11-12T01:03:58;1.60;;;1.50;;
7233;SDS011;3658;47.992;10.158;2022-11-12T01:06:25;1.87;;;1.77;;
7233;SDS011;3658;47.992;10.158;2022-11-12T01:08:53;1.90;;;1.73;;
7233;SDS011;3658;47.992;10.158;2022-11-12T01:11:21;1.40;;;1.30;;
7233;SDS011;3658;47.992;10.158;2022-11-12T01:13:53;1.67;;;1.57;;
7233;SDS011;3658;47.992;10.158;2022-11-12T01:16:23;1.57;;;1.47;;
7233;SDS011;3658;47.992;10.158;2022-11-12T01:18:52;1.33;;;1.23;;
7233;SDS011;3658;47.992;10.158;2022-11-12T01:21:20;1.50;;;1.40;;
7233;SDS011;3658;47.992;10.158;2022-11-12T01:23:47;1.43;;;1.33;;
7233;SDS011;3658;47.992;10.158;2022-11-12T01:26:15;1.60;;;1.50;;
7233;SDS011;3658;47.992;10.158;2022-11-12T01:28:43;1.47;;;1.37;;
7233;SDS011;3658;47.992;10.158;2022-11-12T01:31:13;1.80;;;1.60;;
7233;SDS011;3658;47.992;10.158;2022-11-12T01:33:43;1.43;;;1.33;;
7233;SDS011;3658;47.992;10.158;2022-11-12T01:36:12;1.53;;;1.43;;
7233;SDS011;3658;47.992;10.158;2022-11-12T01:38:41;1.53;;;1.43;;
7233;SDS011;3658;47.992;10.158;2022-11-12T01:41:10;1.33;;;1.23;;
7233;SDS011;3658;47.992;10.158;2022-11-12T01:43:39;1.60;;;1.50;;
7233;SDS011;3658;47.992;10.158;2022-11-12T01:46:06;1.60;;;1.50;;
7233;SDS011;3658;47.992;10.158;2022-11-12T01:48:44;1.53;;;1.43;;
7233;SDS011;3658;47.992;10.158;2022-11-12T01:51:14;1.40;;;1.30;;
7233;SDS011;3658;47.992;10.158;2022-11-12T01:53:43;1.53;;;1.40;;
7233;SDS011;3658;47.992;10.158;2022-11-12T01:56:13;1.40;;;1.30;;
7233;SDS011;3658;47.992;10.158;2022-11-12T01:58:42;1.40;;;1.30;;
7233;SDS011;3658;47.992;10.158;2022-11-12T02:01:12;1.30;;;1.20;;
7233;SDS011;3658;47.992;10.158;2022-11-12T02:03:39;1.40;;;1.30;;
7233;SDS011;3658;47.992;10.158;2022-11-12T02:06:07;1.40;;;1.30;;
7233;SDS011;3658;47.992;10.158;2022-11-12T02:08:36;1.40;;;1.30;;
7233;SDS011;3658;47.992;10.158;2022-11-12T02:11:11;1.30;;;1.20;;
7233;SDS011;3658;47.992;10.158;2022-11-12T02:13:40;1.57;;;1.47;;
7233;SDS011;3658;47.992;10.158;2022-11-12T02:16:27;1.37;;;1.27;;
7233;SDS011;3658;47.992;10.158;2022-11-12T02:18:57;1.50;;;1.40;;
7233;SDS011;3658;47.992;10.158;2022-11-12T02:21:25;1.30;;;1.20;;
7233;SDS011;3658;47.992;10.158;2022-11-12T02:23:56;1.50;;;1.40;;
7233;SDS011;3658;47.992;10.158;2022-11-12T02:26:24;1.43;;;1.33;;
7233;SDS011;3658;47.992;10.158;2022-11-12T02:28:51;1.33;;;1.30;;
7233;SDS011;3658;47.992;10.158;2022-11-12T02:31:18;1.37;;;1.27;;
7233;SDS011;3658;47.992;10.158;2022-11-12T02:33:45;1.90;;;1.20;;
7233;SDS011;3658;47.992;10.158;2022-11-12T02:36:12;1.63;;;1.53;;
7233;SDS011;3658;47.992;10.158;2022-11-12T02:38:40;1.50;;;1.40;;
7233;SDS011;3658;47.992;10.158;2022-11-12T02:41:07;1.37;;;1.27;;
7233;SDS011;3658;47.992;10.158;2022-11-12T02:43:34;1.17;;;1.17;;
7233;SDS011;3658;47.992;10.158;2022-11-12T02:46:01;1.30;;;1.20;;
7233;SDS011;3658;47.992;10.158;2022-11-12T02:48:28;2.20;;;1.30;;
7233;SDS011;3658;47.992;10.158;2022-11-12T02:50:55;1.40;;;1.30;;
7233;SDS011;3658;47.992;10.158;2022-11-12T02:53:22;1.40;;;1.30;;
7233;SDS011;3658;47.992;10.158;2022-11-12T02:55:50;1.17;;;1.17;;
7233;SDS011;3658;47.992;10.158;2022-11-12T02:58:17;1.30;;;1.20;;
7233;SDS011;3658;47.992;10.158;2022-11-12T03:00:46;1.30;;;1.20;;
7233;SDS011;3658;47.992;10.158;2022-11-12T03:03:13;1.00;;;1.00;;
7233;SDS011;3658;47.992;10.158;2022-11-12T03:05:40;1.10;;;1.10;;
7233;SDS011;3658;47.992;10.158;2022-11-12T03:08:08;1.23;;;1.13;;
7233;SDS011;3658;47.992;10.158;2022-11-12T03:10:35;1.40;;;1.30;;
7233;SDS011;3658;47.992;10.158;2022-11-12T03:13:05;1.20;;;1.10;;
7233;SDS011;3658;47.992;10.158;2022-11-12T03:15:32;1.40;;;1.30;;
7233;SDS011;3658;47.992;10.158;2022-11-12T03:17:59;1.10;;;1.10;;
7233;SDS011;3658;47.992;10.158;2022-11-12T03:20:26;1.10;;;1.10;;
7233;SDS011;3658;47.992;10.158;2022-11-12T03:22:54;1.23;;;1.20;;
7233;SDS011;3658;47.992;10.158;2022-11-12T03:25:22;1.30;;;1.20;;
7233;SDS011;3658;47.992;10.158;2022-11-12T03:27:55;1.30;;;1.20;;
7233;SDS011;3658;47.992;10.158;2022-11-12T03:30:25;0.90;;;0.90;;
7233;SDS011;3658;47.992;10.158;2022-11-12T03:32:53;1.10;;;1.10;;
7233;SDS011;3658;47.992;10.158;2022-11-12T03:35:20;1.27;;;1.17;;
7233;SDS011;3658;47.992;10.158;2022-11-12T03:37:47;1.30;;;1.20;;
7233;SDS011;3658;47.992;10.158;2022-11-12T03:40:16;1.30;;;1.20;;
7233;SDS011;3658;47.992;10.158;2022-11-12T03:42:44;1.27;;;1.17;;
7233;SDS011;3658;47.992;10.158;2022-11-12T03:45:11;1.30;;;1.20;;
7233;SDS011;3658;47.992;10.158;2022-11-12T03:47:41;1.50;;;1.40;;
7233;SDS011;3658;47.992;10.158;2022-11-12T03:50:09;1.30;;;1.20;;
7233;SDS011;3658;47.992;10.158;2022-11-12T03:52:36;1.20;;;1.20;;
7233;SDS011;3658;47.992;10.158;2022-11-12T03:55:04;1.10;;;1.10;;
7233;SDS011;3658;47.992;10.158;2022-11-12T03:57:31;1.33;;;1.23;;
7233;SDS011;3658;47.992;10.158;2022-11-12T03:59:59;1.07;;;1.07;;
7233;SDS011;3658;47.992;10.158;2022-11-12T04:02:26;1.67;;;1.20;;
7233;SDS011;3658;47.992;10.158;2022-11-12T04:04:55;1.23;;;1.13;;
7233;SDS011;3658;47.992;10.158;2022-11-12T04:07:39;1.20;;;1.10;;
7233;SDS011;3658;47.992;10.158;2022-11-12T04:10:26;1.30;;;1.20;;
7233;SDS011;3658;47.992;10.158;2022-11-12T04:12:53;1.43;;;1.27;;
7233;SDS011;3658;47.992;10.158;2022-11-12T04:15:38;1.30;;;1.20;;
7233;SDS011;3658;47.992;10.158;2022-11-12T04:18:05;1.13;;;1.10;;
7233;SDS011;3658;47.992;10.158;2022-11-12T04:20:50;1.30;;;1.20;;
7233;SDS011;3658;47.992;10.158;2022-11-12T04:23:37;1.40;;;1.30;;
7233;SDS011;3658;47.992;10.158;2022-11-12T04:26:05;1.40;;;1.30;;
7233;SDS011;3658;47.992;10.158;2022-11-12T04:28:49;1.43;;;1.33;;
7233;SDS011;3658;47.992;10.158;2022-11-12T04:31:34;1.50;;;1.40;;
7233;SDS011;3658;47.992;10.158;2022-11-12T04:34:01;1.40;;;1.30;;
7233;SDS011;3658;47.992;10.158;2022-11-12T04:36:43;1.40;;;1.30;;
7233;SDS011;3658;47.992;10.158;2022-11-12T04:39:10;1.13;;;1.13;;
7233;SDS011;3658;47.992;10.158;2022-11-12T04:41:37;1.40;;;1.30;;
7233;SDS011;3658;47.992;10.158;2022-11-12T04:44:21;1.50;;;1.40;;
7233;SDS011;3658;47.992;10.158;2022-11-12T04:47:06;1.50;;;1.40;;
7233;SDS011;3658;47.992;10.158;2022-11-12T04:49:33;1.60;;;1.50;;
7233;SDS011;3658;47.992;10.158;2022-11-12T04:52:01;1.43;;;1.33;;
7233;SDS011;3658;47.992;10.158;2022-11-12T04:54:31;1.33;;;1.23;;
7233;SDS011;3658;47.992;10.158;2022-11-12T04:56:58;1.70;;;1.60;;
7233;SDS011;3658;47.992;10.158;2022-11-12T04:59:25;1.30;;;1.20;;
7233;SDS011;3658;47.992;10.158;2022-11-12T05:01:52;1.50;;;1.40;;
7233;SDS011;3658;47.992;10.158;2022-11-12T05:04:19;1.60;;;1.50;;
7233;SDS011;3658;47.992;10.158;2022-11-12T05:06:46;1.30;;;1.23;;
7233;SDS011;3658;47.992;10.158;2022-11-12T05:09:20;1.47;;;1.37;;
7233;SDS011;3658;47.992;10.158;2022-11-12T05:11:49;1.50;;;1.40;;
7233;SDS011;3658;47.992;10.158;2022-11-12T05:14:16;1.10;;;1.10;;
7233;SDS011;3658;47.992;10.158;2022-11-12T05:16:43;1.40;;;1.30;;
7233;SDS011;3658;47.992;10.158;2022-11-12T05:19:10;1.40;;;1.30;;
7233;SDS011;3658;47.992;10.158;2022-11-12T05:21:37;1.40;;;1.30;;
7233;SDS011;3658;47.992;10.158;2022-11-12T05:24:23;1.20;;;1.20;;
7233;SDS011;3658;47.992;10.158;2022-11-12T05:26:50;1.40;;;1.30;;
7233;SDS011;3658;47.992;10.158;2022-11-12T05:29:17;1.50;;;1.40;;
7233;SDS011;3658;47.992;10.158;2022-11-12T05:31:44;1.50;;;1.40;;
7233;SDS011;3658;47.992;10.158;2022-11-12T05:34:11;1.43;;;1.33;;
7233;SDS011;3658;47.992;10.158;2022-11-12T05:36:38;1.30;;;1.20;;
7233;SDS011;3658;47.992;10.158;2022-11-12T05:39:05;1.30;;;1.20;;
7233;SDS011;3658;47.992;10.158;2022-11-12T05:41:34;1.70;;;1.37;;
7233;SDS011;3658;47.992;10.158;2022-11-12T05:44:00;1.40;;;1.30;;
7233;SDS011;3658;47.992;10.158;2022-11-12T05:46:27;1.50;;;1.40;;
7233;SDS011;3658;47.992;10.158;2022-11-12T05:48:54;1.10;;;1.10;;
7233;SDS011;3658;47.992;10.158;2022-11-12T05:51:21;1.50;;;1.40;;
7233;SDS011;3658;47.992;10.158;2022-11-12T05:53:48;1.50;;;1.40;;
7233;SDS011;3658;47.992;10.158;2022-11-12T05:56:15;1.30;;;1.20;;
7233;SDS011;3658;47.992;10.158;2022-11-12T05:58:44;1.47;;;1.37;;
7233;SDS011;3658;47.992;10.158;2022-11-12T06:01:11;1.40;;;1.30;;
7233;SDS011;3658;47.992;10.158;2022-11-12T06:03:38;1.43;;;1.33;;
7233;SDS011;3658;47.992;10.158;2022-11-12T06:06:05;1.50;;;1.40;;
7233;SDS011;3658;47.992;10.158;2022-11-12T06:08:32;1.50;;;1.40;;
7233;SDS011;3658;47.992;10.158;2022-11-12T06:10:59;1.60;;;1.50;;
7233;SDS011;3658;47.992;10.158;2022-11-12T06:13:26;1.67;;;1.57;;
7233;SDS011;3658;47.992;10.158;2022-11-12T06:15:55;1.60;;;1.50;;
7233;SDS011;3658;47.992;10.158;2022-11-12T06:18:22;1.70;;;1.60;;
7233;SDS011;3658;47.992;10.158;2022-11-12T06:20:49;1.53;;;1.43;;
7233;SDS011;3658;47.992;10.158;2022-11-12T06:23:30;1.50;;;1.40;;
7233;SDS011;3658;47.992;10.158;2022-11-12T06:25:57;1.60;;;1.50;;
7233;SDS011;3658;47.992;10.158;2022-11-12T06:28:24;1.63;;;1.53;;
7233;SDS011;3658;47.992;10.158;2022-11-12T06:30:51;1.63;;;1.53;;
7233;SDS011;3658;47.992;10.158;2022-11-12T06:33:19;1.60;;;1.50;;
7233;SDS011;3658;47.992;10.158;2022-11-12T06:35:46;1.40;;;1.30;;
7233;SDS011;3658;47.992;10.158;2022-11-12T06:38:21;1.63;;;1.53;;
7233;SDS011;3658;47.992;10.158;2022-11-12T06:40:48;1.50;;;1.40;;
7233;SDS011;3658;47.992;10.158;2022-11-12T06:43:14;1.43;;;1.33;;
7233;SDS011;3658;47.992;10.158;2022-11-12T06:45:41;1.67;;;1.57;;
7233;SDS011;3658;47.992;10.158;2022-11-12T06:48:08;1.47;;;1.37;;
7233;SDS011;3658;47.992;10.158;2022-11-12T06:50:36;1.70;;;1.60;;
7233;SDS011;3658;47.992;10.158;2022-11-12T06:53:03;1.73;;;1.63;;
7233;SDS011;3658;47.992;10.158;2022-11-12T06:55:30;1.70;;;1.60;;
7233;SDS011;3658;47.992;10.158;2022-11-12T06:57:57;1.70;;;1.60;;
7233;SDS011;3658;47.992;10.158;2022-11-12T07:00:24;2.00;;;1.40;;
7233;SDS011;3658;47.992;10.158;2022-11-12T07:02:51;1.77;;;1.67;;
7233;SDS011;3658;47.992;10.158;2022-11-12T07:05:18;1.83;;;1.60;;
7233;SDS011;3658;47.992;10.158;2022-11-12T07:07:46;1.87;;;1.40;;
7233;SDS011;3658;47.992;10.158;2022-11-12T07:10:13;1.60;;;1.40;;
7233;SDS011;3658;47.992;10.158;2022-11-12T07:12:41;1.50;;;1.40;;
7233;SDS011;3658;47.992;10.158;2022-11-12T07:15:08;4.07;;;1.67;;
7233;SDS011;3658;47.992;10.158;2022-11-12T07:17:35;1.87;;;1.77;;
7233;SDS011;3658;47.992;10.158;2022-11-12T07:20:02;7.40;;;1.90;;
7233;SDS011;3658;47.992;10.158;2022-11-12T07:22:31;1.40;;;1.30;;
7233;SDS011;3658;47.992;10.158;2022-11-12T07:25:00;1.40;;;1.30;;
7233;SDS011;3658;47.992;10.158;2022-11-12T07:27:27;1.57;;;1.47;;
7233;SDS011;3658;47.992;10.158;2022-11-12T07:29:55;1.50;;;1.40;;
7233;SDS011;3658;47.992;10.158;2022-11-12T07:32:22;1.40;;;1.30;;
7233;SDS011;3658;47.992;10.158;2022-11-12T07:34:49;3.47;;;1.40;;
7233;SDS011;3658;47.992;10.158;2022-11-12T07:37:16;1.50;;;1.40;;
7233;SDS011;3658;47.992;10.158;2022-11-12T07:39:43;1.20;;;1.10;;
7233;SDS011;3658;47.992;10.158;2022-11-12T07:42:11;2.40;;;1.20;;
7233;SDS011;3658;47.992;10.158;2022-11-12T07:44:38;2.00;;;1.20;;
7233;SDS011;3658;47.992;10.158;2022-11-12T07:47:05;1.50;;;1.40;;
7233;SDS011;3658;47.992;10.158;2022-11-12T07:49:32;2.47;;;1.50;;
7233;SDS011;3658;47.992;10.158;2022-11-12T07:51:59;1.40;;;1.30;;
7233;SDS011;3658;47.992;10.158;2022-11-12T07:54:26;1.93;;;1.73;;
7233;SDS011;3658;47.992;10.158;2022-11-12T07:56:53;1.40;;;1.30;;
7233;SDS011;3658;47.992;10.158;2022-11-12T07:59:21;1.60;;;1.50;;
7233;SDS011;3658;47.992;10.158;2022-11-12T08:01:48;1.60;;;1.50;;
7233;SDS011;3658;47.992;10.158;2022-11-12T08:04:15;1.50;;;1.40;;
7233;SDS011;3658;47.992;10.158;2022-11-12T08:06:42;1.60;;;1.50;;
7233;SDS011;3658;47.992;10.158;2022-11-12T08:09:08;3.67;;;2.00;;
7233;SDS011;3658;47.992;10.158;2022-11-12T08:11:35;1.40;;;1.30;;
7233;SDS011;3658;47.992;10.158;2022-11-12T08:14:02;1.90;;;1.40;;
7233;SDS011;3658;47.992;10.158;2022-11-12T08:16:31;2.63;;;1.60;;
7233;SDS011;3658;47.992;10.158;2022-11-12T08:18:59;3.93;;;1.63;;
7233;SDS011;3658;47.992;10.158;2022-11-12T08:21:26;7.87;;;2.10;;
7233;SDS011;3658;47.992;10.158;2022-11-12T08:23:53;3.60;;;1.80;;
7233;SDS011;3658;47.992;10.158;2022-11-12T08:26:20;3.53;;;1.40;;
7233;SDS011;3658;47.992;10.158;2022-11-12T08:28:47;11.53;;;2.00;;
7233;SDS011;3658;47.992;10.158;2022-11-12T08:31:15;8.17;;;1.60;;
7233;SDS011;3658;47.992;10.158;2022-11-12T08:33:44;3.67;;;1.80;;
7233;SDS011;3658;47.992;10.158;2022-11-12T08:36:12;6.23;;;2.13;;
7233;SDS011;3658;47.992;10.158;2022-11-12T08:38:40;9.60;;;2.23;;
7233;SDS011;3658;47.992;10.158;2022-11-12T08:41:08;6.93;;;2.03;;
7233;SDS011;3658;47.992;10.158;2022-11-12T08:43:37;6.70;;;2.17;;
7233;SDS011;3658;47.992;10.158;2022-11-12T08:46:04;12.57;;;2.53;;
7233;SDS011;3658;47.992;10.158;2022-11-12T08:48:32;11.13;;;2.60;;
7233;SDS011;3658;47.992;10.158;2022-11-12T08:51:01;4.70;;;2.13;;
7233;SDS011;3658;47.992;10.158;2022-11-12T08:53:28;10.90;;;2.93;;
7233;SDS011;3658;47.992;10.158;2022-11-12T08:55:55;15.10;;;2.77;;
7233;SDS011;3658;47.992;10.158;2022-11-12T08:58:23;11.97;;;2.93;;
7233;SDS011;3658;47.992;10.158;2022-11-12T09:00:51;15.40;;;3.10;;
7233;SDS011;3658;47.992;10.158;2022-11-12T09:03:19;13.77;;;3.07;;
7233;SDS011;3658;47.992;10.158;2022-11-12T09:05:47;12.23;;;2.87;;
7233;SDS011;3658;47.992;10.158;2022-11-12T09:08:16;6.90;;;2.60;;
7233;SDS011;3658;47.992;10.158;2022-11-12T09:10:46;9.77;;;3.30;;
7233;SDS011;3658;47.992;10.158;2022-11-12T09:13:13;15.13;;;2.67;;
7233;SDS011;3658;47.992;10.158;2022-11-12T09:15:41;5.50;;;2.70;;
7233;SDS011;3658;47.992;10.158;2022-11-12T09:18:10;12.20;;;3.27;;
7233;SDS011;3658;47.992;10.158;2022-11-12T09:20:39;5.47;;;2.43;;
7233;SDS011;3658;47.992;10.158;2022-11-12T09:23:07;10.00;;;2.80;;
7233;SDS011;3658;47.992;10.158;2022-11-12T09:25:38;7.80;;;2.80;;
7233;SDS011;3658;47.992;10.158;2022-11-12T09:28:06;7.60;;;2.20;;
7233;SDS011;3658;47.992;10.158;2022-11-12T09:30:34;10.20;;;2.60;;
7233;SDS011;3658;47.992;10.158;2022-11-12T09:33:02;9.13;;;2.77;;
7233;SDS011;3658;47.992;10.158;2022-11-12T09:35:29;9.73;;;2.40;;
7233;SDS011;3658;47.992;10.158;2022-11-12T09:37:56;7.27;;;2.30;;
7233;SDS011;3658;47.992;10.158;2022-11-12T09:40:27;6.50;;;2.07;;
7233;SDS011;3658;47.992;10.158;2022-11-12T09:43:09;9.60;;;2.47;;
7233;SDS011;3658;47.992;10.158;2022-11-12T09:45:42;6.97;;;2.30;;
7233;SDS011;3658;47.992;10.158;2022-11-12T09:48:10;6.07;;;2.13;;
7233;SDS011;3658;47.992;10.158;2022-11-12T09:50:46;7.83;;;2.30;;
7233;SDS011;3658;47.992;10.158;2022-11-12T09:53:21;4.43;;;2.13;;
7233;SDS011;3658;47.992;10.158;2022-11-12T09:55:54;7.80;;;2.47;;
7233;SDS011;3658;47.992;10.158;2022-11-12T09:58:21;5.40;;;2.07;;
7233;SDS011;3658;47.992;10.158;2022-11-12T10:00:52;5.10;;;2.10;;
7233;SDS011;3658;47.992;10.158;2022-11-12T10:03:24;4.73;;;1.80;;
7233;SDS011;3658;47.992;10.158;2022-11-12T10:06:03;5.27;;;2.20;;
7233;SDS011;3658;47.992;10.158;2022-11-12T10:08:38;2.53;;;2.10;;
7233;SDS011;3658;47.992;10.158;2022-11-12T10:11:16;2.97;;;1.90;;
7233;SDS011;3658;47.992;10.158;2022-11-12T10:13:57;4.67;;;2.00;;
7233;SDS011;3658;47.992;10.158;2022-11-12T10:16:38;3.80;;;1.80;;
7233;SDS011;3658;47.992;10.158;2022-11-12T10:19:23;4.33;;;2.07;;
7233;SDS011;3658;47.992;10.158;2022-11-12T10:22:01;3.97;;;2.00;;
7233;SDS011;3658;47.992;10.158;2022-11-12T10:24:37;4.93;;;1.87;;
7233;SDS011;3658;47.992;10.158;2022-11-12T10:27:12;4.70;;;1.70;;
7233;SDS011;3658;47.992;10.158;2022-11-12T10:29:45;5.90;;;2.03;;
7233;SDS011;3658;47.992;10.158;2022-11-12T10:32:18;4.90;;;2.13;;
7233;SDS011;3658;47.992;10.158;2022-11-12T10:34:44;3.23;;;1.60;;
7233;SDS011;3658;47.992;10.158;2022-11-12T10:37:12;2.93;;;2.00;;
7233;SDS011;3658;47.992;10.158;2022-11-12T10:39:44;2.67;;;1.80;;
7233;SDS011;3658;47.992;10.158;2022-11-12T10:42:14;4.13;;;1.90;;
7233;SDS011;3658;47.992;10.158;2022-11-12T10:44:42;4.87;;;2.10;;
7233;SDS011;3658;47.992;10.158;2022-11-12T10:47:26;3.83;;;2.00;;
7233;SDS011;3658;47.992;10.158;2022-11-12T10:50:14;2.07;;;1.87;;
7233;SDS011;3658;47.992;10.158;2022-11-12T10:52:54;1.90;;;1.70;;
7233;SDS011;3658;47.992;10.158;2022-11-12T10:55:23;3.43;;;1.90;;
7233;SDS011;3658;47.992;10.158;2022-11-12T10:58:04;1.97;;;1.77;;
7233;SDS011;3658;47.992;10.158;2022-11-12T11:00:32;3.83;;;1.97;;
7233;SDS011;3658;47.992;10.158;2022-11-12T11:03:00;2.73;;;2.00;;
7233;SDS011;3658;47.992;10.158;2022-11-12T11:05:31;2.73;;;1.63;;
7233;SDS011;3658;47.992;10.158;2022-11-12T11:08:00;2.67;;;1.80;;
7233;SDS011;3658;47.992;10.158;2022-11-12T11:10:28;2.40;;;1.57;;
7233;SDS011;3658;47.992;10.158;2022-11-12T11:13:13;2.47;;;1.90;;
7233;SDS011;3658;47.992;10.158;2022-11-12T11:18:27;2.40;;;1.67;;
7233;SDS011;3658;47.992;10.158;2022-11-12T11:20:59;2.03;;;1.60;;
7233;SDS011;3658;47.992;10.158;2022-11-12T11:23:31;2.60;;;1.70;;
7233;SDS011;3658;47.992;10.158;2022-11-12T11:26:09;3.57;;;1.70;;
7233;SDS011;3658;47.992;10.158;2022-11-12T11:28:50;1.80;;;1.63;;
7233;SDS011;3658;47.992;10.158;2022-11-12T11:31:30;2.00;;;1.80;;
7233;SDS011;3658;47.992;10.158;2022-11-12T11:34:04;4.63;;;1.80;;
7233;SDS011;3658;47.992;10.158;2022-11-12T11:36:41;1.77;;;1.63;;
7233;SDS011;3658;47.992;10.158;2022-11-12T11:39:20;2.20;;;1.93;;
7233;SDS011;3658;47.992;10.158;2022-11-12T11:41:53;1.80;;;1.70;;
7233;SDS011;3658;47.992;10.158;2022-11-12T11:44:34;2.10;;;1.90;;
7233;SDS011;3658;47.992;10.158;2022-11-12T11:47:12;2.00;;;1.80;;
7233;SDS011;3658;47.992;10.158;2022-11-12T11:49:59;2.30;;;1.80;;
7233;SDS011;3658;47.992;10.158;2022-11-12T11:52:44;1.57;;;1.47;;
7233;SDS011;3658;47.992;10.158;2022-11-12T11:55:30;3.27;;;1.90;;
7233;SDS011;3658;47.992;10.158;2022-11-12T11:58:05;2.17;;;1.60;;
7233;SDS011;3658;47.992;10.158;2022-11-12T12:00:50;2.97;;;1.90;;
7233;SDS011;3658;47.992;10.158;2022-11-12T12:03:27;1.90;;;1.53;;
7233;SDS011;3658;47.992;10.158;2022-11-12T12:06:08;1.73;;;1.63;;
7233;SDS011;3658;47.992;10.158;2022-11-12T12:08:49;2.23;;;1.80;;
7233;SDS011;3658;47.992;10.158;2022-11-12T12:11:33;1.90;;;1.80;;
7233;SDS011;3658;47.992;10.158;2022-11-12T12:14:08;1.70;;;1.60;;
7233;SDS011;3658;47.992;10.158;2022-11-12T12:16:49;1.73;;;1.63;;
7233;SDS011;3658;47.992;10.158;2022-11-12T12:19:26;2.37;;;1.70;;
7233;SDS011;3658;47.992;10.158;2022-11-12T12:22:04;2.47;;;1.80;;
7233;SDS011;3658;47.992;10.158;2022-11-12T12:24:40;1.97;;;1.77;;
7233;SDS011;3658;47.992;10.158;2022-11-12T12:27:14;1.80;;;1.70;;
7233;SDS011;3658;47.992;10.158;2022-11-12T12:29:45;1.60;;;1.50;;
7233;SDS011;3658;47.992;10.158;2022-11-12T12:32:18;2.57;;;1.80;;
7233;SDS011;3658;47.992;10.158;2022-11-12T12:34:54;1.90;;;1.80;;
7233;SDS011;3658;47.992;10.158;2022-11-12T12:37:25;1.70;;;1.60;;
7233;SDS011;3658;47.992;10.158;2022-11-12T12:40:02;1.73;;;1.63;;
7233;SDS011;3658;47.992;10.158;2022-11-12T12:42:36;1.60;;;1.50;;
7233;SDS011;3658;47.992;10.158;2022-11-12T12:45:16;1.93;;;1.83;;
7233;SDS011;3658;47.992;10.158;2022-11-12T12:47:55;1.70;;;1.60;;
7233;SDS011;3658;47.992;10.158;2022-11-12T12:50:23;1.73;;;1.63;;
7233;SDS011;3658;47.992;10.158;2022-11-12T12:52:58;1.80;;;1.70;;
7233;SDS011;3658;47.992;10.158;2022-11-12T12:55:33;1.70;;;1.60;;
7233;SDS011;3658;47.992;10.158;2022-11-12T12:58:13;1.90;;;1.80;;
7233;SDS011;3658;47.992;10.158;2022-11-12T13:00:49;1.97;;;1.57;;
7233;SDS011;3658;47.992;10.158;2022-11-12T13:06:23;1.60;;;1.50;;
7233;SDS011;3658;47.992;10.158;2022-11-12T13:08:53;3.03;;;1.70;;
7233;SDS011;3658;47.992;10.158;2022-11-12T13:14:49;1.70;;;1.60;;
7233;SDS011;3658;47.992;10.158;2022-11-12T13:23:06;2.07;;;1.87;;
7233;SDS011;3658;47.992;10.158;2022-11-12T13:37:57;1.80;;;1.70;;
7233;SDS011;3658;47.992;10.158;2022-11-12T13:40:35;3.37;;;1.80;;
7233;SDS011;3658;47.992;10.158;2022-11-12T13:43:17;1.90;;;1.80;;
7233;SDS011;3658;47.992;10.158;2022-11-12T13:45:56;1.70;;;1.60;;
7233;SDS011;3658;47.992;10.158;2022-11-12T13:48:26;1.70;;;1.60;;
7233;SDS011;3658;47.992;10.158;2022-11-12T13:50:56;3.00;;;1.80;;
7233;SDS011;3658;47.992;10.158;2022-11-12T13:53:29;2.00;;;1.80;;
7233;SDS011;3658;47.992;10.158;2022-11-12T13:55:57;1.77;;;1.60;;
7233;SDS011;3658;47.992;10.158;2022-11-12T13:58:25;2.07;;;1.80;;
7233;SDS011;3658;47.992;10.158;2022-11-12T14:00:54;1.60;;;1.50;;
7233;SDS011;3658;47.992;10.158;2022-11-12T14:03:23;1.80;;;1.70;;
7233;SDS011;3658;47.992;10.158;2022-11-12T14:05:53;1.73;;;1.63;;
7233;SDS011;3658;47.992;10.158;2022-11-12T14:08:27;1.70;;;1.60;;
7233;SDS011;3658;47.992;10.158;2022-11-12T14:11:25;1.93;;;1.80;;
7233;SDS011;3658;47.992;10.158;2022-11-12T14:14:10;1.70;;;1.60;;
7233;SDS011;3658;47.992;10.158;2022-11-12T14:16:48;1.60;;;1.50;;
7233;SDS011;3658;47.992;10.158;2022-11-12T14:19:37;1.60;;;1.50;;
7233;SDS011;3658;47.992;10.158;2022-11-12T14:22:23;1.80;;;1.70;;
7233;SDS011;3658;47.992;10.158;2022-11-12T14:24:53;1.60;;;1.50;;
7233;SDS011;3658;47.992;10.158;2022-11-12T14:27:33;2.10;;;1.90;;
7233;SDS011;3658;47.992;10.158;2022-11-12T14:30:09;1.70;;;1.60;;
7233;SDS011;3658;47.992;10.158;2022-11-12T14:32:41;1.70;;;1.60;;
7233;SDS011;3658;47.992;10.158;2022-11-12T14:35:16;1.77;;;1.67;;
7233;SDS011;3658;47.992;10.158;2022-11-12T14:37:52;1.60;;;1.50;;
7233;SDS011;3658;47.992;10.158;2022-11-12T14:40:24;1.70;;;1.60;;
7233;SDS011;3658;47.992;10.158;2022-11-12T14:42:52;1.80;;;1.70;;
7233;SDS011;3658;47.992;10.158;2022-11-12T14:45:20;2.33;;;1.80;;
7233;SDS011;3658;47.992;10.158;2022-11-12T14:47:48;1.60;;;1.50;;
7233;SDS011;3658;47.992;10.158;2022-11-12T14:50:17;2.00;;;1.80;;
7233;SDS011;3658;47.992;10.158;2022-11-12T14:52:47;1.70;;;1.60;;
7233;SDS011;3658;47.992;10.158;2022-11-12T14:55:17;1.80;;;1.70;;
7233;SDS011;3658;47.992;10.158;2022-11-12T14:57:49;1.90;;;1.80;;
7233;SDS011;3658;47.992;10.158;2022-11-12T15:00:16;1.60;;;1.50;;
7233;SDS011;3658;47.992;10.158;2022-11-12T15:02:45;1.77;;;1.67;;
7233;SDS011;3658;47.992;10.158;2022-11-12T15:05:14;2.00;;;1.90;;
7233;SDS011;3658;47.992;10.158;2022-11-12T15:07:51;2.10;;;1.90;;
7233;SDS011;3658;47.992;10.158;2022-11-12T15:10:32;1.90;;;1.80;;
7233;SDS011;3658;47.992;10.158;2022-11-12T15:13:04;1.80;;;1.70;;
7233;SDS011;3658;47.992;10.158;2022-11-12T15:15:34;1.70;;;1.60;;
7233;SDS011;3658;47.992;10.158;2022-11-12T15:18:04;1.80;;;1.70;;
7233;SDS011;3658;47.992;10.158;2022-11-12T15:20:33;1.90;;;1.80;;
7233;SDS011;3658;47.992;10.158;2022-11-12T15:23:00;1.90;;;1.70;;
7233;SDS011;3658;47.992;10.158;2022-11-12T15:25:28;1.93;;;1.83;;
7233;SDS011;3658;47.992;10.158;2022-11-12T15:30:58;2.20;;;2.00;;
7233;SDS011;3658;47.992;10.158;2022-11-12T15:33:26;1.77;;;1.67;;
7233;SDS011;3658;47.992;10.158;2022-11-12T15:35:56;1.67;;;1.57;;
7233;SDS011;3658;47.992;10.158;2022-11-12T15:38:25;1.80;;;1.70;;
7233;SDS011;3658;47.992;10.158;2022-11-12T15:40:56;1.97;;;1.80;;
7233;SDS011;3658;47.992;10.158;2022-11-12T15:43:25;1.70;;;1.60;;
7233;SDS011;3658;47.992;10.158;2022-11-12T15:45:54;2.10;;;1.90;;
7233;SDS011;3658;47.992;10.158;2022-11-12T15:48:21;1.70;;;1.60;;
7233;SDS011;3658;47.992;10.158;2022-11-12T15:50:48;2.00;;;1.80;;